This is the latest recevied weather packets stored in our database for station/object KE7KUS-14. If no packets are shown the sender has not sent any weather packets the latest 10 day(s).
| Time | Temp. | Humidity | Pressure | Rain* | Wind** | Luminosity | Snow |
|---|---|---|---|---|---|---|---|
| 1777996291 | 12.22° C | 39% | 1022.9 hPa | 0 mm | - | 130 W/m² | - |
| 1777995122 | 12.22° C | 41% | 1022.9 hPa | 0 mm | - | 90 W/m² | - |
| 1777994472 | 12.22° C | 42% | 1022.9 hPa | 0 mm | - | 72 W/m² | - |
| 1777993887 | 12.22° C | 42% | 1022.9 hPa | 0 mm | - | 95 W/m² | - |
| 1777982519 | 12.22° C | 40% | 1022.4 hPa | 0 mm | - | 0 W/m² | - |
| 1777978945 | 12.78° C | 40% | 1022.6 hPa | 0 mm | - | 0 W/m² | - |
| 1777974719 | 13.33° C | 38% | 1022.6 hPa | 0 mm | - | 0 W/m² | - |
| 1777973540 | 13.89° C | 37% | 1022.9 hPa | 0 mm | - | 0 W/m² | - |
| 1777972303 | 12.22° C | 41% | 1022.9 hPa | 0 mm | - | 0 W/m² | - |
| 1777971718 | 11.67° C | 44% | 1023 hPa | 0 mm | - | 0 W/m² | - |
| 1777969312 | 13.33° C | 39% | 1023.4 hPa | 0 mm | - | 0 W/m² | - |
| 1777968727 | 13.89° C | 37% | 1023.4 hPa | 0 mm | - | 0 W/m² | - |
| 1777961510 | 14.44° C | 32% | 1023.3 hPa | 0 mm | - | 0 W/m² | - |
| 1777957940 | 16.11° C | 26% | 1023.7 hPa | 0 mm | - | 0 W/m² | - |
| 1777957354 | 16.11° C | 27% | 1023.7 hPa | 0 mm | - | 0 W/m² | - |
| 1777954951 | 16.11° C | 27% | 1023.8 hPa | 0 mm | - | 0 W/m² | - |
| 1777953783 | 16.11° C | 27% | 1023.7 hPa | 0 mm | - | 0 W/m² | - |
| 1777951336 | 16.67° C | 26% | 1023.4 hPa | 0 mm | - | 0 W/m² | - |
| 1777947736 | 16.67° C | 26% | 1022.4 hPa | 0 mm | - | 0 W/m² | - |
| 1777946567 | 17.22° C | 26% | 1022.5 hPa | 0 mm | - | 0 W/m² | - |
| 1777944749 | 17.22° C | 23% | 1022.1 hPa | 0 mm | - | 0 W/m² | - |
| 1777944164 | 17.22° C | 23% | 1022.1 hPa | 0 mm | - | 2 W/m² | - |
| 1777942366 | 17.78° C | 22% | 1022.5 hPa | 0 mm | - | 19 W/m² | - |
| 1777940528 | 17.78° C | 24% | 1022.5 hPa | 0 mm | - | 63 W/m² | - |
| 1777939359 | 18.33° C | 24% | 1022.5 hPa | 0 mm | - | 94 W/m² | - |
* Rain latest hour (hover to see other rain measurements)
** Current wind speed in m/s (hover to see current wind gust speed)